createdAt,value
2018-04-15T00:00:24.400Z,78.10
2018-04-15T00:02:50.132Z,77.97
2018-04-15T00:05:15.868Z,73.63
2018-04-15T00:07:41.599Z,75.07
2018-04-15T00:10:07.384Z,75.50
2018-04-15T00:12:33.121Z,73.53
2018-04-15T00:14:58.852Z,76.40
2018-04-15T00:17:24.579Z,79.67
2018-04-15T00:19:50.313Z,76.60
2018-04-15T00:22:16.048Z,79.63
2018-04-15T00:24:41.780Z,78.57
2018-04-15T00:27:07.518Z,88.13
2018-04-15T00:29:33.299Z,78.87
2018-04-15T00:31:59.048Z,76.43
2018-04-15T00:34:24.771Z,79.43
2018-04-15T00:36:50.513Z,77.17
2018-04-15T00:39:16.259Z,75.27
2018-04-15T00:41:42.010Z,83.77
2018-04-15T00:44:07.748Z,81.67
2018-04-15T00:46:33.493Z,81.07
2018-04-15T00:48:59.228Z,75.90
2018-04-15T00:51:24.975Z,79.73
2018-04-15T00:54:03.229Z,78.27
2018-04-15T00:56:28.972Z,78.78
2018-04-15T00:58:54.705Z,80.03
2018-04-15T01:01:20.464Z,80.37
2018-04-15T01:03:46.184Z,79.70
2018-04-15T01:06:11.934Z,79.63
2018-04-15T01:08:37.673Z,77.67
2018-04-15T01:11:03.397Z,86.13
2018-04-15T01:13:29.162Z,77.73
2018-04-15T01:15:55.248Z,78.87
2018-04-15T01:18:20.991Z,83.40
2018-04-15T01:20:46.719Z,81.73
2018-04-15T01:23:12.476Z,80.67
2018-04-15T01:25:38.208Z,81.97
2018-04-15T01:28:04.364Z,82.07
2018-04-15T01:30:30.100Z,95.90
2018-04-15T01:32:55.836Z,91.03
2018-04-15T01:35:21.560Z,80.00
2018-04-15T01:37:47.296Z,85.30
2018-04-15T01:40:13.099Z,81.80
2018-04-15T01:42:38.836Z,81.80
2018-04-15T01:45:04.564Z,80.63
2018-04-15T01:47:30.303Z,83.77
2018-04-15T01:49:56.029Z,80.03
2018-04-15T01:52:21.759Z,86.37
2018-04-15T01:54:47.486Z,77.87
2018-04-15T01:57:13.241Z,87.37
2018-04-15T01:59:38.976Z,85.13
2018-04-15T02:02:04.716Z,81.53
2018-04-15T02:04:30.435Z,85.83
2018-04-15T02:06:57.503Z,79.70
2018-04-15T02:09:23.240Z,79.18
2018-04-15T02:11:48.970Z,84.37
2018-04-15T02:14:14.708Z,83.87
2018-04-15T02:16:40.432Z,86.90
2018-04-15T02:19:06.177Z,86.13
2018-04-15T02:21:32.283Z,78.03
2018-04-15T02:23:58.304Z,77.37
2018-04-15T02:26:24.057Z,74.43
2018-04-15T02:28:49.795Z,77.27
2018-04-15T02:31:15.531Z,74.70
2018-04-15T02:33:41.277Z,81.53
2018-04-15T02:36:07.004Z,84.73
2018-04-15T02:38:32.737Z,85.50
2018-04-15T02:40:58.481Z,79.53
2018-04-15T02:43:24.524Z,79.17
2018-04-15T02:45:50.419Z,82.57
2018-04-15T02:48:16.428Z,77.00
2018-04-15T02:50:42.350Z,77.70
2018-04-15T02:53:08.084Z,75.83
2018-04-15T02:55:33.801Z,85.80
2018-04-15T02:57:59.530Z,78.57
2018-04-15T03:00:25.272Z,79.63
2018-04-15T03:02:51.019Z,77.67
2018-04-15T03:05:16.748Z,83.37
2018-04-15T03:07:42.477Z,79.27
2018-04-15T03:10:08.198Z,81.33
2018-04-15T03:12:33.933Z,85.17
2018-04-15T03:14:59.668Z,79.60
2018-04-15T03:17:25.387Z,86.77
2018-04-15T03:19:51.120Z,79.53
2018-04-15T03:22:16.852Z,77.93
2018-04-15T03:24:42.584Z,79.27
2018-04-15T03:27:08.301Z,77.40
2018-04-15T03:29:34.041Z,77.93
2018-04-15T03:31:59.767Z,80.70
2018-04-15T03:34:25.496Z,81.63
2018-04-15T03:36:51.218Z,81.10
2018-04-15T03:39:16.965Z,78.07
2018-04-15T03:41:42.700Z,80.17
2018-04-15T03:44:08.440Z,74.50
2018-04-15T03:46:34.167Z,71.13
2018-04-15T03:48:59.911Z,73.90
2018-04-15T03:51:25.628Z,70.40
2018-04-15T03:53:51.348Z,69.40
2018-04-15T03:56:17.060Z,70.30
2018-04-15T03:58:42.791Z,74.43
2018-04-15T04:01:08.503Z,70.37
2018-04-15T04:03:34.228Z,68.50
2018-04-15T04:05:59.932Z,69.33
2018-04-15T04:08:25.655Z,74.17
2018-04-15T04:10:51.372Z,74.97
2018-04-15T04:13:17.099Z,69.87
2018-04-15T04:15:42.807Z,69.93
2018-04-15T04:18:21.032Z,71.37
2018-04-15T04:20:59.329Z,73.03
2018-04-15T04:23:37.532Z,71.07
2018-04-15T04:26:03.252Z,68.27
2018-04-15T04:28:28.967Z,66.50
2018-04-15T04:30:54.685Z,69.73
2018-04-15T04:33:20.405Z,70.07
2018-04-15T04:35:46.124Z,69.53
2018-04-15T04:38:11.836Z,64.00
2018-04-15T04:40:37.569Z,70.40
2018-04-15T04:43:03.280Z,67.13
2018-04-15T04:45:29.014Z,68.70
2018-04-15T04:47:54.735Z,62.33
2018-04-15T04:50:20.460Z,64.83
2018-04-15T04:52:46.179Z,68.73
2018-04-15T04:55:11.903Z,63.37
2018-04-15T04:57:37.620Z,68.03
2018-04-15T05:00:03.347Z,68.67
2018-04-15T05:02:29.064Z,66.53
2018-04-15T05:04:54.797Z,63.50
2018-04-15T05:07:20.536Z,68.07
2018-04-15T05:09:46.264Z,57.27
2018-04-15T05:12:11.978Z,61.93
2018-04-15T05:14:37.707Z,71.43
2018-04-15T05:17:03.453Z,71.33
2018-04-15T05:19:29.155Z,74.03
2018-04-15T05:21:54.871Z,72.60
2018-04-15T05:24:20.657Z,72.37
2018-04-15T05:26:46.336Z,76.13
2018-04-15T05:29:12.064Z,72.10
2018-04-15T05:31:37.784Z,72.50
2018-04-15T05:34:03.517Z,77.33
2018-04-15T05:36:29.248Z,71.60
2018-04-15T05:38:54.970Z,69.47
2018-04-15T05:41:20.695Z,69.43
2018-04-15T05:43:46.412Z,76.07
2018-04-15T05:46:12.140Z,79.93
2018-04-15T05:48:37.876Z,80.97
2018-04-15T05:51:03.607Z,78.67
2018-04-15T05:53:29.317Z,79.50
2018-04-15T05:55:55.056Z,77.23
2018-04-15T05:58:20.784Z,80.67
2018-04-15T06:00:46.508Z,85.13
2018-04-15T06:03:12.220Z,76.57
2018-04-15T06:05:37.956Z,80.17
2018-04-15T06:08:03.664Z,77.90
2018-04-15T06:10:29.391Z,77.50
2018-04-15T06:12:55.103Z,72.23
2018-04-15T06:15:20.828Z,77.27
2018-04-15T06:17:46.542Z,77.23
2018-04-15T06:20:12.270Z,80.57
2018-04-15T06:22:37.981Z,75.43
2018-04-15T06:25:03.702Z,76.53
2018-04-15T06:27:29.411Z,72.00
2018-04-15T06:29:55.127Z,74.53
2018-04-15T06:32:20.843Z,77.43
2018-04-15T06:34:46.585Z,72.00
2018-04-15T06:37:12.300Z,71.13
2018-04-15T06:39:38.030Z,74.63
2018-04-15T06:42:03.739Z,71.63
2018-04-15T06:44:29.454Z,71.80
2018-04-15T06:46:55.185Z,73.17
2018-04-15T06:49:20.964Z,69.93
2018-04-15T06:51:46.648Z,72.30
2018-04-15T06:54:12.360Z,71.43
2018-04-15T06:56:38.095Z,64.77
2018-04-15T06:59:03.815Z,66.70
2018-04-15T07:01:29.562Z,65.10
2018-04-15T07:03:55.285Z,60.80
2018-04-15T07:06:21.011Z,58.27
2018-04-15T07:08:46.754Z,60.53
2018-04-15T07:11:12.487Z,57.87
2018-04-15T07:13:38.204Z,58.30
2018-04-15T07:16:03.943Z,53.90
2018-04-15T07:18:29.674Z,51.73
2018-04-15T07:20:55.410Z,48.13
2018-04-15T07:23:21.132Z,45.27
2018-04-15T07:25:46.869Z,40.40
2018-04-15T07:28:12.583Z,43.23
2018-04-15T07:30:38.322Z,43.80
2018-04-15T07:33:04.054Z,39.03
2018-04-15T07:35:29.790Z,37.83
2018-04-15T07:37:55.508Z,32.47
2018-04-15T07:40:21.239Z,35.80
2018-04-15T07:42:46.969Z,33.20
2018-04-15T07:45:12.704Z,34.97
2018-04-15T07:47:38.427Z,33.10
2018-04-15T07:50:04.148Z,33.30
2018-04-15T07:52:29.872Z,32.60
2018-04-15T07:54:55.593Z,32.67
2018-04-15T07:57:21.332Z,31.87
2018-04-15T07:59:47.048Z,32.73
2018-04-15T08:02:12.771Z,32.17
2018-04-15T08:04:38.491Z,34.50
2018-04-15T08:07:04.224Z,34.43
2018-04-15T08:09:29.932Z,34.47
2018-04-15T08:11:55.661Z,35.87
2018-04-15T08:14:21.388Z,34.67
2018-04-15T08:16:47.136Z,34.93
2018-04-15T08:19:12.847Z,34.37
2018-04-15T08:21:38.599Z,34.63
2018-04-15T08:24:04.328Z,35.83
2018-04-15T08:26:30.048Z,35.63
2018-04-15T08:28:55.748Z,34.70
2018-04-15T08:31:21.490Z,35.47
2018-04-15T08:33:47.200Z,36.47
2018-04-15T08:36:12.924Z,35.83
2018-04-15T08:38:38.651Z,34.37
2018-04-15T08:41:04.377Z,34.53
2018-04-15T08:43:30.280Z,33.90
2018-04-15T08:45:56.016Z,34.93
2018-04-15T08:48:21.736Z,33.23
2018-04-15T08:50:47.469Z,32.90
2018-04-15T08:53:13.185Z,32.07
2018-04-15T08:55:38.911Z,30.93
2018-04-15T08:58:04.641Z,32.30
2018-04-15T09:00:30.351Z,32.30
2018-04-15T09:02:56.085Z,34.10
2018-04-15T09:05:21.807Z,35.70
2018-04-15T09:07:47.552Z,34.93
2018-04-15T09:10:13.275Z,35.30
2018-04-15T09:12:39.006Z,33.13
2018-04-15T09:15:04.728Z,34.67
2018-04-15T09:17:30.452Z,35.27
2018-04-15T09:19:56.167Z,34.87
2018-04-15T09:22:21.896Z,34.30
2018-04-15T09:24:47.612Z,37.13
2018-04-15T09:27:13.344Z,37.03
2018-04-15T09:29:39.122Z,36.27
2018-04-15T09:32:04.800Z,40.70
2018-04-15T09:34:30.524Z,37.80
2018-04-15T09:36:56.256Z,38.70
2018-04-15T09:39:21.970Z,37.07
2018-04-15T09:41:47.696Z,37.97
2018-04-15T09:44:13.424Z,37.37
2018-04-15T09:46:39.173Z,37.43
2018-04-15T09:49:04.888Z,37.93
2018-04-15T09:51:30.616Z,37.10
2018-04-15T09:53:56.333Z,38.10
2018-04-15T09:56:22.065Z,38.23
2018-04-15T09:58:47.769Z,36.43
2018-04-15T10:01:16.443Z,36.10
2018-04-15T10:03:42.172Z,36.90
2018-04-15T10:06:07.879Z,36.17
2018-04-15T10:08:33.600Z,37.63
2018-04-15T10:10:59.317Z,38.63
2018-04-15T10:13:25.043Z,38.80
2018-04-15T10:15:50.757Z,37.47
2018-04-15T10:18:16.483Z,39.20
2018-04-15T10:20:42.201Z,36.40
2018-04-15T10:23:07.924Z,41.43
2018-04-15T10:25:33.636Z,39.47
2018-04-15T10:27:59.363Z,39.73
2018-04-15T10:30:25.083Z,41.27
2018-04-15T10:32:50.804Z,40.73
2018-04-15T10:35:16.508Z,42.53
2018-04-15T10:37:42.233Z,41.20
2018-04-15T10:40:07.941Z,40.83
2018-04-15T10:42:33.669Z,43.43
2018-04-15T10:44:59.379Z,43.53
2018-04-15T10:47:25.124Z,45.47
2018-04-15T10:49:50.848Z,45.40
2018-04-15T10:52:16.578Z,47.53
2018-04-15T10:54:42.320Z,47.50
2018-04-15T10:57:08.041Z,45.33
2018-04-15T10:59:33.760Z,48.10
2018-04-15T11:01:59.491Z,46.50
2018-04-15T11:04:25.199Z,47.93
2018-04-15T11:06:50.912Z,46.60
2018-04-15T11:09:16.641Z,46.27
2018-04-15T11:11:42.365Z,47.50
2018-04-15T11:14:08.098Z,49.03
2018-04-15T11:16:33.812Z,49.10
2018-04-15T11:18:59.547Z,48.17
2018-04-15T11:21:25.277Z,49.77
2018-04-15T11:23:51.012Z,50.97
2018-04-15T11:26:16.732Z,55.87
2018-04-15T11:28:42.459Z,52.93
2018-04-15T11:31:08.181Z,55.47
2018-04-15T11:33:33.920Z,55.70
2018-04-15T11:35:59.636Z,52.10
2018-04-15T11:38:25.389Z,54.20
2018-04-15T11:40:51.106Z,52.63
2018-04-15T11:43:16.845Z,52.77
2018-04-15T11:45:42.564Z,53.00
2018-04-15T11:48:08.288Z,54.30
2018-04-15T11:50:33.996Z,55.83
2018-04-15T11:52:59.720Z,53.70
2018-04-15T11:55:25.429Z,52.43
2018-04-15T11:57:51.156Z,54.13
2018-04-15T12:00:16.871Z,49.13
2018-04-15T12:02:42.600Z,50.97
2018-04-15T12:05:08.377Z,50.10
2018-04-15T12:07:34.124Z,52.37
2018-04-15T12:09:59.835Z,55.77
2018-04-15T12:12:25.837Z,53.47
2018-04-15T12:14:51.655Z,51.70
2018-04-15T12:17:17.395Z,57.93
2018-04-15T12:19:43.128Z,54.33
2018-04-15T12:22:08.834Z,49.20
2018-04-15T12:24:34.564Z,53.23
2018-04-15T12:27:00.273Z,51.20
2018-04-15T12:29:26.021Z,55.07
2018-04-15T12:31:51.753Z,52.17
2018-04-15T12:34:17.479Z,55.43
2018-04-15T12:36:43.183Z,51.33
2018-04-15T12:39:08.920Z,53.10
2018-04-15T12:41:34.732Z,49.87
2018-04-15T12:44:00.584Z,51.17
2018-04-15T12:46:26.667Z,50.83
2018-04-15T12:48:52.512Z,52.07
2018-04-15T12:51:18.240Z,50.97
2018-04-15T12:53:44.049Z,50.00
2018-04-15T12:56:09.791Z,46.77
2018-04-15T12:58:35.523Z,48.77
2018-04-15T13:01:01.245Z,47.53
2018-04-15T13:03:27.009Z,50.20
2018-04-15T13:05:52.747Z,49.13
2018-04-15T13:08:18.485Z,46.67
2018-04-15T13:10:44.213Z,45.57
2018-04-15T13:13:09.949Z,45.50
2018-04-15T13:15:35.745Z,45.50
2018-04-15T13:18:01.499Z,48.33
2018-04-15T13:20:28.135Z,47.53
2018-04-15T13:22:53.860Z,50.57
2018-04-15T13:25:19.600Z,55.30
2018-04-15T13:27:45.324Z,53.67
2018-04-15T13:30:11.076Z,53.40
2018-04-15T13:32:36.808Z,49.90
2018-04-15T13:35:02.561Z,45.93
2018-04-15T13:37:28.296Z,47.13
2018-04-15T13:39:54.265Z,50.63
2018-04-15T13:42:20.359Z,48.63
2018-04-15T13:44:46.348Z,50.63
2018-04-15T13:47:12.112Z,49.23
2018-04-15T13:49:37.877Z,50.23
2018-04-15T13:52:03.592Z,53.10
2018-04-15T13:54:29.325Z,49.50
2018-04-15T13:56:55.039Z,49.97
2018-04-15T13:59:20.780Z,49.73
2018-04-15T14:01:46.508Z,52.00
2018-04-15T14:04:12.258Z,50.00
2018-04-15T14:06:37.990Z,50.97
2018-04-15T14:09:03.739Z,48.67
2018-04-15T14:11:29.484Z,49.67
2018-04-15T14:13:55.216Z,50.10
2018-04-15T14:16:20.936Z,49.37
2018-04-15T14:18:46.675Z,50.43
2018-04-15T14:21:12.440Z,48.27
2018-04-15T14:23:38.164Z,49.97
2018-04-15T14:26:03.908Z,51.43
2018-04-15T14:28:29.631Z,48.37
2018-04-15T14:30:55.379Z,51.50
2018-04-15T14:33:21.112Z,50.03
2018-04-15T14:35:46.854Z,50.40
2018-04-15T14:38:12.600Z,50.17
2018-04-15T14:40:38.352Z,48.73
2018-04-15T14:43:04.089Z,49.53
2018-04-15T14:45:29.815Z,51.93
2018-04-15T14:47:55.561Z,48.60
2018-04-15T14:50:21.313Z,47.70
2018-04-15T14:52:47.066Z,47.80
2018-04-15T14:55:12.817Z,49.03
2018-04-15T14:57:38.560Z,45.33
2018-04-15T15:00:04.302Z,45.40
2018-04-15T15:02:30.025Z,46.07
2018-04-15T15:04:55.789Z,48.17
2018-04-15T15:07:21.520Z,46.13
2018-04-15T15:09:47.272Z,48.60
2018-04-15T15:12:13.028Z,46.83
2018-04-15T15:14:38.762Z,45.33
2018-04-15T15:17:04.483Z,49.70
2018-04-15T15:19:30.288Z,46.30
2018-04-15T15:21:55.968Z,46.93
2018-04-15T15:24:21.707Z,44.27
2018-04-15T15:26:47.419Z,45.10
2018-04-15T15:29:13.172Z,43.00
2018-04-15T15:31:38.907Z,45.60
2018-04-15T15:34:04.628Z,45.73
2018-04-15T15:36:30.388Z,46.57
2018-04-15T15:38:56.121Z,47.83
2018-04-15T15:41:21.874Z,46.90
2018-04-15T15:43:47.614Z,48.30
2018-04-15T15:46:13.357Z,46.03
2018-04-15T15:48:39.129Z,47.33
2018-04-15T15:51:04.868Z,47.90
2018-04-15T15:53:30.604Z,47.87
2018-04-15T15:55:56.345Z,48.97
2018-04-15T15:58:22.072Z,50.33
2018-04-15T16:00:47.817Z,46.50
2018-04-15T16:03:13.560Z,50.10
2018-04-15T16:05:39.297Z,46.87
2018-04-15T16:08:05.065Z,46.27
2018-04-15T16:10:30.807Z,45.43
2018-04-15T16:12:56.552Z,44.87
2018-04-15T16:15:22.300Z,45.17
2018-04-15T16:17:48.028Z,46.23
2018-04-15T16:20:13.812Z,43.03
2018-04-15T16:22:39.513Z,44.47
2018-04-15T16:25:05.244Z,44.00
2018-04-15T16:27:30.984Z,43.07
2018-04-15T16:29:56.729Z,45.73
2018-04-15T16:32:22.472Z,65.23
2018-04-15T16:34:48.220Z,43.63
2018-04-15T16:37:13.953Z,45.30
2018-04-15T16:39:39.684Z,46.67
2018-04-15T16:42:05.428Z,45.63
2018-04-15T16:44:31.177Z,43.33
2018-04-15T16:46:56.929Z,42.67
2018-04-15T16:49:22.692Z,43.87
2018-04-15T16:51:48.427Z,43.50
2018-04-15T16:54:14.152Z,43.90
2018-04-15T16:56:39.897Z,43.23
2018-04-15T16:59:05.650Z,42.87
2018-04-15T17:01:31.376Z,44.70
2018-04-15T17:03:57.107Z,44.80
2018-04-15T17:06:22.845Z,44.20
2018-04-15T17:08:48.586Z,44.07
2018-04-15T17:11:14.346Z,44.33
2018-04-15T17:13:40.050Z,43.40
2018-04-15T17:16:05.863Z,45.00
2018-04-15T17:18:31.544Z,45.87
2018-04-15T17:20:57.336Z,47.43
2018-04-15T17:23:23.077Z,44.97
2018-04-15T17:25:48.813Z,44.17
2018-04-15T17:28:14.549Z,47.57
2018-04-15T17:30:40.291Z,45.60
2018-04-15T17:33:06.225Z,45.10
2018-04-15T17:35:32.754Z,46.23
2018-04-15T17:37:58.492Z,44.53
2018-04-15T17:40:24.249Z,45.17
2018-04-15T17:42:49.988Z,45.80
2018-04-15T17:45:15.716Z,42.97
2018-04-15T17:47:41.459Z,44.33
2018-04-15T17:50:07.213Z,44.80
2018-04-15T17:52:32.952Z,46.53
2018-04-15T17:54:58.677Z,44.63
2018-04-15T17:57:24.426Z,45.97
2018-04-15T17:59:50.160Z,47.03
2018-04-15T18:02:15.901Z,44.30
2018-04-15T18:04:41.633Z,43.80
2018-04-15T18:07:07.463Z,46.27
2018-04-15T18:09:33.230Z,45.67
2018-04-15T18:11:59.173Z,45.43
2018-04-15T18:14:24.981Z,45.87
2018-04-15T18:16:50.746Z,48.57
2018-04-15T18:19:16.480Z,47.90
2018-04-15T18:21:42.395Z,48.97
2018-04-15T18:24:08.268Z,49.70
2018-04-15T18:26:34.030Z,47.30
2018-04-15T18:28:59.850Z,48.53
2018-04-15T18:31:25.879Z,48.27
2018-04-15T18:33:52.352Z,49.10
2018-04-15T18:36:18.302Z,51.07
2018-04-15T18:38:44.033Z,44.50
2018-04-15T18:41:09.773Z,47.67
2018-04-15T18:43:35.501Z,48.33
2018-04-15T18:46:01.515Z,48.77
2018-04-15T18:48:27.260Z,47.60
2018-04-15T18:50:53.155Z,46.97
2018-04-15T18:53:19.074Z,46.27
2018-04-15T18:55:44.948Z,48.33
2018-04-15T18:58:10.700Z,48.03
2018-04-15T19:00:36.554Z,48.97
2018-04-15T19:03:02.339Z,46.87
2018-04-15T19:05:28.075Z,45.77
2018-04-15T19:07:53.830Z,45.90
2018-04-15T19:10:19.560Z,45.57
2018-04-15T19:12:45.297Z,46.20
2018-04-15T19:15:11.029Z,48.67
2018-04-15T19:17:36.771Z,46.57
2018-04-15T19:20:02.514Z,49.00
2018-04-15T19:22:28.256Z,49.57
2018-04-15T19:24:54.037Z,50.50
2018-04-15T19:27:19.770Z,50.53
2018-04-15T19:29:45.529Z,51.13
2018-04-15T19:32:11.258Z,54.13
2018-04-15T19:34:36.987Z,51.37
2018-04-15T19:37:02.722Z,53.03
2018-04-15T19:39:28.448Z,52.47
2018-04-15T19:41:54.226Z,53.57
2018-04-15T19:44:19.936Z,61.80
2018-04-15T19:46:45.681Z,60.77
2018-04-15T19:49:11.416Z,53.87
2018-04-15T19:51:37.171Z,53.63
2018-04-15T19:54:02.885Z,55.03
2018-04-15T19:56:28.654Z,54.00
2018-04-15T19:58:54.371Z,56.10
2018-04-15T20:01:20.095Z,56.03
2018-04-15T20:03:45.833Z,57.87
2018-04-15T20:06:11.588Z,56.73
2018-04-15T20:08:37.321Z,54.73
2018-04-15T20:11:03.045Z,60.10
2018-04-15T20:13:28.777Z,58.53
2018-04-15T20:15:54.480Z,59.37
2018-04-15T20:18:20.227Z,58.13
2018-04-15T20:20:45.990Z,59.90
2018-04-15T20:23:11.720Z,58.07
2018-04-15T20:25:37.448Z,57.90
2018-04-15T20:28:03.183Z,57.67
2018-04-15T20:30:28.904Z,58.90
2018-04-15T20:32:54.649Z,60.43
2018-04-15T20:35:20.368Z,59.50
2018-04-15T20:37:46.118Z,59.33
2018-04-15T20:40:11.856Z,56.50
2018-04-15T20:42:37.590Z,57.30
2018-04-15T20:45:03.328Z,55.93
2018-04-15T20:47:29.119Z,58.53
2018-04-15T20:49:54.852Z,55.40
2018-04-15T20:52:20.599Z,56.33
2018-04-15T20:54:46.324Z,58.40
2018-04-15T20:57:12.053Z,55.63
2018-04-15T20:59:37.803Z,55.80
2018-04-15T21:02:03.539Z,59.60
2018-04-15T21:04:29.280Z,55.17
2018-04-15T21:06:55.010Z,56.50
2018-04-15T21:09:20.749Z,56.27
2018-04-15T21:11:46.471Z,54.53
2018-04-15T21:14:12.197Z,55.97
2018-04-15T21:16:37.919Z,56.83
2018-04-15T21:19:03.668Z,58.13
2018-04-15T21:21:29.399Z,53.67
2018-04-15T21:23:55.226Z,59.47
2018-04-15T21:26:20.965Z,59.30
2018-04-15T21:28:46.705Z,55.47
2018-04-15T21:31:12.438Z,58.77
2018-04-15T21:33:38.164Z,59.57
2018-04-15T21:36:03.884Z,57.20
2018-04-15T21:38:29.671Z,59.30
2018-04-15T21:40:55.449Z,55.63
2018-04-15T21:43:21.177Z,59.17
2018-04-15T21:45:46.907Z,59.40
2018-04-15T21:48:12.704Z,60.03
2018-04-15T21:50:38.436Z,60.53
2018-04-15T21:53:04.504Z,58.47
2018-04-15T21:55:30.240Z,58.77
2018-04-15T21:57:55.980Z,58.17
2018-04-15T22:00:21.724Z,61.13
2018-04-15T22:02:47.473Z,62.17
2018-04-15T22:05:13.213Z,62.27
2018-04-15T22:07:39.179Z,63.30
2018-04-15T22:10:05.036Z,64.47
2018-04-15T22:12:30.764Z,64.80
2018-04-15T22:14:56.500Z,63.83
2018-04-15T22:17:22.236Z,63.73
2018-04-15T22:19:47.977Z,61.97
2018-04-15T22:22:13.865Z,66.23
2018-04-15T22:24:39.600Z,65.37
2018-04-15T22:27:05.329Z,68.20
2018-04-15T22:29:31.147Z,66.40
2018-04-15T22:31:57.008Z,71.87
2018-04-15T22:34:22.780Z,70.37
2018-04-15T22:36:48.682Z,72.57
2018-04-15T22:39:14.418Z,80.17
2018-04-15T22:41:40.160Z,66.57
2018-04-15T22:44:05.891Z,116.67
2018-04-15T22:46:31.609Z,79.63
2018-04-15T22:48:57.357Z,101.10
2018-04-15T22:51:23.089Z,112.73
2018-04-15T22:53:48.840Z,93.73
2018-04-15T22:56:14.588Z,82.60
2018-04-15T22:58:46.211Z,78.50
2018-04-15T23:01:11.944Z,68.80
2018-04-15T23:03:37.670Z,76.67
2018-04-15T23:06:03.396Z,79.20
2018-04-15T23:08:29.130Z,71.07
2018-04-15T23:10:54.863Z,79.03
2018-04-15T23:13:20.609Z,68.43
2018-04-15T23:15:46.353Z,65.93
2018-04-15T23:18:12.085Z,67.00
2018-04-15T23:20:37.826Z,79.23
2018-04-15T23:23:03.563Z,82.57
2018-04-15T23:25:29.296Z,69.40
2018-04-15T23:27:55.020Z,76.87
2018-04-15T23:30:20.753Z,124.23
2018-04-15T23:32:46.473Z,98.33
2018-04-15T23:35:12.210Z,64.13
2018-04-15T23:37:37.920Z,62.93
2018-04-15T23:40:03.661Z,88.20
2018-04-15T23:42:29.399Z,61.43
2018-04-15T23:44:55.124Z,92.67
2018-04-15T23:47:20.845Z,102.47
2018-04-15T23:49:46.596Z,134.17
2018-04-15T23:52:12.329Z,123.53
2018-04-15T23:54:38.066Z,91.20
2018-04-15T23:57:03.814Z,72.17
2018-04-15T23:59:29.565Z,129.60
